createdAt,value
2023-03-23T15:58:13.845Z,97877.50
2023-03-23T16:00:43.046Z,97878.34
2023-03-23T16:03:18.106Z,97879.31
2023-03-23T16:05:45.301Z,97883.88
2023-03-23T16:08:12.483Z,97886.09
2023-03-23T16:10:39.063Z,97878.63
2023-03-23T16:13:06.213Z,97876.69
2023-03-23T16:15:33.242Z,97870.53
2023-03-23T16:18:00.007Z,97868.16
2023-03-23T16:20:29.605Z,97872.88
2023-03-23T16:22:56.547Z,97864.66
2023-03-23T16:25:23.252Z,97867.88
2023-03-23T16:27:52.221Z,97872.03
2023-03-23T16:30:19.370Z,97872.16
2023-03-23T16:32:47.075Z,97860.91
2023-03-23T16:35:15.414Z,97858.84
2023-03-23T16:37:50.617Z,97853.53
2023-03-23T16:40:18.573Z,97857.13
2023-03-23T16:42:45.289Z,97857.53
2023-03-23T16:45:12.926Z,97860.97
2023-03-23T16:47:40.383Z,97859.19
2023-03-23T16:50:12.111Z,97855.41
2023-03-23T16:52:46.232Z,97849.78
2023-03-23T16:55:16.349Z,97851.72
2023-03-23T16:57:43.550Z,97856.09
2023-03-23T17:00:20.033Z,97846.75
2023-03-23T17:02:52.045Z,97847.16
2023-03-23T17:05:22.779Z,97850.66
2023-03-23T17:07:49.374Z,97850.94
2023-03-23T17:10:16.865Z,97848.28
2023-03-23T17:12:44.222Z,97847.16
2023-03-23T17:15:11.453Z,97844.81
2023-03-23T17:17:38.186Z,97853.69
2023-03-23T17:20:06.469Z,97849.94
2023-03-23T17:22:33.136Z,97848.13
2023-03-23T17:24:59.928Z,97841.59
2023-03-23T17:27:27.366Z,97848.75
2023-03-23T17:29:53.944Z,97845.88
2023-03-23T17:32:21.838Z,97842.75
2023-03-23T17:34:48.488Z,97837.16
2023-03-23T17:37:15.653Z,97839.56
2023-03-23T17:39:44.450Z,97833.28
2023-03-23T17:42:11.853Z,97834.75
2023-03-23T17:44:38.598Z,97834.63
2023-03-23T17:47:08.261Z,97840.75
2023-03-23T17:49:35.427Z,97839.47
2023-03-23T17:52:07.924Z,97835.72
2023-03-23T17:54:34.602Z,97834.75
2023-03-23T17:57:03.902Z,97841.13
2023-03-23T17:59:31.100Z,97844.03
2023-03-23T18:01:58.070Z,97842.50
2023-03-23T18:04:26.990Z,97840.00
2023-03-23T18:06:57.719Z,97835.16
2023-03-23T18:09:25.705Z,97840.44
2023-03-23T18:11:53.066Z,97842.94
2023-03-23T18:14:20.304Z,97839.47
2023-03-23T18:17:41.807Z,97838.75
2023-03-23T18:20:09.157Z,97837.72
2023-03-23T18:22:36.276Z,97836.38
2023-03-23T18:25:05.206Z,97832.78
2023-03-23T18:27:32.479Z,97829.44
2023-03-23T18:29:59.177Z,97831.63
2023-03-23T18:32:27.998Z,97833.16
2023-03-23T18:34:56.022Z,97837.63
2023-03-23T18:37:22.872Z,97837.88
2023-03-23T18:39:49.557Z,97840.38
2023-03-23T18:42:16.298Z,97843.50
2023-03-23T18:44:43.156Z,97845.88
2023-03-23T18:47:09.804Z,97845.13
2023-03-23T18:49:36.915Z,97837.59
2023-03-23T18:52:04.446Z,97834.50
2023-03-23T18:54:34.774Z,97835.47
2023-03-23T18:57:03.084Z,97836.72
2023-03-23T18:59:34.668Z,97847.25
2023-03-23T19:02:07.701Z,97848.19
2023-03-23T19:04:34.469Z,97837.19
2023-03-23T19:07:01.980Z,97836.25
2023-03-23T19:09:30.441Z,97829.19
2023-03-23T19:11:57.276Z,97817.69
2023-03-23T19:14:24.131Z,97820.94
2023-03-23T19:16:52.375Z,97813.13
2023-03-23T19:19:19.921Z,97816.16
2023-03-23T19:21:47.285Z,97816.16
2023-03-23T19:24:14.317Z,97819.03
2023-03-23T19:26:43.467Z,97817.53
2023-03-23T19:31:45.740Z,97817.31
2023-03-23T19:34:14.172Z,97816.59
2023-03-23T19:36:41.108Z,97814.94
2023-03-23T19:39:08.858Z,97809.31
2023-03-23T19:41:36.333Z,97807.53
2023-03-23T19:44:04.128Z,97804.03
2023-03-23T19:46:32.089Z,97807.75
2023-03-23T19:48:59.430Z,97799.41
2023-03-23T19:51:27.592Z,97801.66
2023-03-23T19:53:57.146Z,97799.16
2023-03-23T19:56:24.873Z,97799.31
2023-03-23T19:58:52.352Z,97810.91
2023-03-23T20:01:19.455Z,97806.22
2023-03-23T20:03:46.588Z,97808.03
2023-03-23T20:06:15.200Z,97810.03
2023-03-23T20:08:44.725Z,97795.63
2023-03-23T20:11:14.418Z,97806.16
2023-03-23T20:13:41.614Z,97802.25
2023-03-23T20:16:09.272Z,97801.84
2023-03-23T20:18:37.921Z,97807.97
2023-03-23T20:21:07.422Z,97789.53
2023-03-23T20:23:38.466Z,97795.50
2023-03-23T20:26:06.911Z,97794.28
2023-03-23T20:28:33.979Z,97788.44
2023-03-23T20:31:21.126Z,97788.94
2023-03-23T20:34:02.502Z,97798.66
2023-03-23T20:36:57.799Z,97786.22
2023-03-23T20:39:26.584Z,97779.03
2023-03-23T20:41:54.717Z,97780.84
2023-03-23T20:44:25.337Z,97781.81
2023-03-23T20:46:53.167Z,97782.63
2023-03-23T20:49:20.905Z,97784.81
2023-03-23T20:51:48.556Z,97792.56
2023-03-23T20:54:16.258Z,97793.44
2023-03-23T20:56:48.283Z,97789.22
2023-03-23T20:59:15.783Z,97791.50
2023-03-23T21:01:42.845Z,97786.47
2023-03-23T21:04:15.199Z,97788.53
2023-03-23T21:06:43.787Z,97781.72
2023-03-23T21:09:10.481Z,97776.19
2023-03-23T21:11:37.361Z,97784.94
2023-03-23T21:14:05.215Z,97778.56
2023-03-23T21:16:32.063Z,97778.50
2023-03-23T21:18:59.020Z,97781.75
2023-03-23T21:21:27.410Z,97780.28
2023-03-23T21:23:55.641Z,97777.41
2023-03-23T21:26:25.101Z,97773.69
2023-03-23T21:28:54.258Z,97767.94
2023-03-23T21:31:23.474Z,97765.66
2023-03-23T21:33:50.499Z,97763.38
2023-03-23T21:36:17.291Z,97765.16
2023-03-23T21:38:44.803Z,97772.25
2023-03-23T21:41:14.381Z,97770.34
2023-03-23T21:43:44.465Z,97745.06
2023-03-23T21:46:14.118Z,97737.41
2023-03-23T21:48:41.588Z,97731.16
2023-03-23T21:51:10.083Z,97734.28
2023-03-23T21:53:37.189Z,97731.16
2023-03-23T21:56:09.685Z,97721.59
2023-03-23T21:58:37.856Z,97712.00
2023-03-23T22:01:05.449Z,97713.84
2023-03-23T22:03:33.260Z,97721.16
2023-03-23T22:06:09.575Z,97714.22
2023-03-23T22:08:37.576Z,97720.44
2023-03-23T22:11:13.395Z,97727.13
2023-03-23T22:13:41.523Z,97728.34
2023-03-23T22:16:14.835Z,97729.44
2023-03-23T22:18:43.414Z,97723.91
2023-03-23T22:21:11.218Z,97727.22
2023-03-23T22:23:39.145Z,97716.94
2023-03-23T22:26:07.632Z,97710.00
2023-03-23T22:28:37.151Z,97696.41
2023-03-23T22:31:13.637Z,97698.31
2023-03-23T22:33:40.543Z,97702.03
2023-03-23T22:36:07.818Z,97692.56
2023-03-23T22:38:42.189Z,97685.84
2023-03-23T22:41:11.051Z,97679.03
2023-03-23T22:43:38.068Z,97673.44
2023-03-23T22:46:05.778Z,97675.09
2023-03-23T22:48:32.739Z,97671.50
2023-03-23T22:50:59.714Z,97680.38
2023-03-23T22:53:26.862Z,97674.13
2023-03-23T22:55:55.761Z,97656.22
2023-03-23T22:58:23.882Z,97644.53
2023-03-23T23:00:57.003Z,97648.13
2023-03-23T23:03:23.903Z,97652.69
2023-03-23T23:05:52.010Z,97625.75
2023-03-23T23:08:19.329Z,97630.88
2023-03-23T23:10:48.920Z,97632.94
2023-03-23T23:13:15.833Z,97635.59
2023-03-23T23:15:45.734Z,97628.88
2023-03-23T23:18:12.612Z,97610.00
2023-03-23T23:20:41.090Z,97613.31
2023-03-23T23:23:08.629Z,97609.88
2023-03-23T23:25:35.794Z,97610.00
2023-03-23T23:28:04.065Z,97607.50
2023-03-23T23:30:31.553Z,97611.97
2023-03-23T23:32:58.937Z,97608.25
2023-03-23T23:35:26.473Z,97608.25
2023-03-23T23:37:53.727Z,97601.44
2023-03-23T23:40:20.763Z,97588.50
2023-03-23T23:42:49.891Z,97580.59
2023-03-23T23:45:17.548Z,97575.59
2023-03-23T23:47:45.652Z,97565.91
2023-03-23T23:50:14.115Z,97567.69
2023-03-23T23:52:42.633Z,97566.03
2023-03-23T23:55:11.065Z,97572.34
2023-03-23T23:57:38.004Z,97570.69
